Time;durP1;ratioP1;P1;durP2;ratioP2;P2;SDS_P1;SDS_P2;PMS_P1;PMS_P2;Temp;Humidity;BMP_temperature;BMP_pressure;BME280_temperature;BME280_humidity;BME280_pressure;Samples;Min_cycle;Max_cycle;Signal;HPM_P1;HPM_P2
2022/06/06 00:01:34;;;;;;;5.17;4.10;;;13.10;99.90;;;;;;4164744;28;20177;-68
2022/06/06 00:03:34;;;;;;;5.20;3.93;;;13.10;99.90;;;;;;4166678;28;20247;-68
2022/06/06 00:05:36;;;;;;;6.00;4.30;;;13.10;99.90;;;;;;4181360;28;20181;-68
2022/06/06 00:07:37;;;;;;;4.67;4.00;;;13.10;99.90;;;;;;4181655;28;20168;-68
2022/06/06 00:09:38;;;;;;;8.43;4.50;;;13.10;99.90;;;;;;4181445;28;20177;-68
2022/06/06 00:11:39;;;;;;;4.70;4.03;;;13.10;99.90;;;;;;4181440;28;20199;-69
2022/06/06 00:13:43;;;;;;;5.87;4.00;;;13.00;99.90;;;;;;4181166;28;20204;-68
2022/06/06 00:15:43;;;;;;;5.17;4.30;;;13.00;99.90;;;;;;4180740;28;20176;-70
2022/06/06 00:17:44;;;;;;;7.60;4.10;;;13.00;99.90;;;;;;4180972;28;20941;-68
2022/06/06 00:19:44;;;;;;;6.43;4.23;;;13.00;99.90;;;;;;4181345;28;20250;-68
2022/06/06 00:21:46;;;;;;;7.17;4.40;;;13.00;99.90;;;;;;4181262;28;20242;-69
2022/06/06 00:23:46;;;;;;;6.97;4.27;;;13.00;99.90;;;;;;4180965;28;20200;-69
2022/06/06 00:25:47;;;;;;;4.60;3.97;;;13.00;99.90;;;;;;4181178;28;20215;-69
2022/06/06 00:27:47;;;;;;;5.27;4.23;;;12.90;99.90;;;;;;4182255;28;20176;-69
2022/06/06 00:29:49;;;;;;;5.33;4.00;;;12.90;99.90;;;;;;4181744;28;20168;-69
2022/06/06 00:36:32;;;;;;;5.33;4.17;;;12.80;99.90;;;;;;4180638;28;20187;-69
2022/06/06 00:38:33;;;;;;;7.20;4.77;;;12.70;99.90;;;;;;4180959;28;20640;-69
2022/06/06 00:40:33;;;;;;;6.20;4.83;;;12.60;99.90;;;;;;4180910;28;20195;-69
2022/06/06 00:42:38;;;;;;;6.70;4.60;;;12.60;99.90;;;;;;4181040;28;20253;-69
2022/06/06 00:44:40;;;;;;;6.50;4.40;;;12.60;99.90;;;;;;4181188;28;20592;-69
2022/06/06 00:47:05;;;;;;;8.43;4.33;;;12.60;99.90;;;;;;4180362;28;20177;-69
2022/06/06 00:49:13;;;;;;;7.40;4.53;;;12.70;99.90;;;;;;4180723;28;20177;-69
2022/06/06 00:51:15;;;;;;;5.43;4.70;;;12.70;99.90;;;;;;4180778;28;20526;-69
2022/06/06 00:53:20;;;;;;;4.87;4.37;;;12.70;99.90;;;;;;4180563;28;20172;-69
2022/06/06 00:55:25;;;;;;;5.33;4.73;;;12.70;99.90;;;;;;4180494;28;20539;-69
2022/06/06 00:57:31;;;;;;;7.03;4.53;;;12.70;99.90;;;;;;4181436;28;20176;-69
2022/06/06 00:59:35;;;;;;;5.53;4.93;;;12.50;99.90;;;;;;4180500;28;20188;-69
2022/06/06 01:01:37;;;;;;;6.10;4.53;;;12.50;99.90;;;;;;4181606;28;20268;-69
2022/06/06 01:03:40;;;;;;;5.33;4.40;;;12.50;99.90;;;;;;4181391;28;20694;-69
2022/06/06 01:05:44;;;;;;;4.90;4.20;;;12.50;99.90;;;;;;4181147;28;20176;-69
2022/06/06 01:07:44;;;;;;;4.70;4.00;;;12.40;99.90;;;;;;4181504;28;20666;-69
2022/06/06 01:09:46;;;;;;;9.10;5.10;;;12.30;99.90;;;;;;4181157;28;20172;-69
2022/06/06 01:11:51;;;;;;;6.47;4.90;;;12.20;99.90;;;;;;4181166;28;20557;-69
2022/06/06 01:13:54;;;;;;;7.17;4.70;;;12.20;99.90;;;;;;4181467;28;20214;-69
2022/06/06 01:16:16;;;;;;;5.07;4.57;;;12.30;99.90;;;;;;4180771;28;20588;-69
2022/06/06 01:18:41;;;;;;;6.03;4.70;;;12.30;99.90;;;;;;4181166;28;20538;-69
2022/06/06 01:21:15;;;;;;;4.30;3.80;;;12.30;99.90;;;;;;4181088;28;20196;-69
2022/06/06 01:23:39;;;;;;;5.93;4.60;;;12.30;99.90;;;;;;4181110;28;20219;-69
2022/06/06 01:26:10;;;;;;;6.97;5.53;;;12.20;99.90;;;;;;4180708;28;20733;-69
2022/06/06 01:28:25;;;;;;;6.53;4.90;;;12.20;99.90;;;;;;4181185;28;20180;-69
2022/06/06 01:30:32;;;;;;;5.40;4.90;;;12.00;99.90;;;;;;4181370;28;20183;-69
2022/06/06 01:32:48;;;;;;;8.53;4.73;;;12.00;99.90;;;;;;4181280;28;20541;-69
2022/06/06 01:34:52;;;;;;;6.40;5.47;;;12.00;99.90;;;;;;4179591;28;20246;-69
2022/06/06 01:36:56;;;;;;;6.43;4.77;;;12.10;99.90;;;;;;4180068;28;20601;-69
2022/06/06 01:38:58;;;;;;;9.77;5.03;;;12.10;99.90;;;;;;4180909;28;20184;-68
2022/06/06 01:41:03;;;;;;;9.03;5.57;;;12.10;99.90;;;;;;4180734;28;20176;-69
2022/06/06 01:43:13;;;;;;;7.73;5.57;;;12.10;99.90;;;;;;4181086;28;20294;-69
2022/06/06 01:45:42;;;;;;;5.53;5.00;;;12.10;99.90;;;;;;4180846;28;20184;-69
2022/06/06 01:47:49;;;;;;;6.73;5.30;;;12.10;99.90;;;;;;4177354;28;20234;-69
2022/06/06 01:49:50;;;;;;;6.13;4.90;;;11.90;99.90;;;;;;4181175;28;20275;-69
2022/06/06 01:52:00;;;;;;;6.13;4.47;;;11.90;99.90;;;;;;4180966;28;20196;-69
2022/06/06 01:54:00;;;;;;;6.87;4.97;;;11.90;99.90;;;;;;4170447;28;20334;-69
2022/06/06 01:56:03;;;;;;;11.83;5.10;;;11.90;99.90;;;;;;4164356;28;20189;-70
2022/06/06 01:58:08;;;;;;;6.63;5.57;;;11.90;99.90;;;;;;4164479;28;20197;-69
2022/06/06 02:00:10;;;;;;;7.87;5.83;;;11.80;99.90;;;;;;4164455;28;20541;-69
2022/06/06 02:02:11;;;;;;;6.20;5.33;;;11.80;99.90;;;;;;4167899;28;20241;-69
2022/06/06 02:04:11;;;;;;;7.60;5.20;;;12.00;99.90;;;;;;4181022;28;20288;-69
2022/06/06 02:06:13;;;;;;;11.37;5.93;;;12.00;99.90;;;;;;4180472;28;20195;-69
2022/06/06 02:08:15;;;;;;;6.53;5.60;;;12.10;99.90;;;;;;4179513;28;20184;-69
2022/06/06 02:10:17;;;;;;;6.60;5.57;;;12.20;99.90;;;;;;4179569;28;20184;-69
2022/06/06 02:12:20;;;;;;;7.13;5.17;;;12.20;99.90;;;;;;4179463;28;20219;-69
2022/06/06 02:14:21;;;;;;;6.53;4.90;;;12.20;99.90;;;;;;4179177;28;20599;-70
2022/06/06 02:16:22;;;;;;;6.73;5.07;;;12.20;99.90;;;;;;4178606;28;20186;-70
2022/06/06 02:18:23;;;;;;;5.83;4.50;;;12.20;99.90;;;;;;4178917;28;20526;-70
2022/06/06 02:20:28;;;;;;;7.73;4.60;;;12.10;99.90;;;;;;4179084;28;20203;-70
2022/06/06 02:22:29;;;;;;;9.10;5.17;;;12.00;99.90;;;;;;4179173;28;20793;-71
2022/06/06 02:24:29;;;;;;;6.87;4.90;;;12.00;99.90;;;;;;4173144;28;20250;-70
2022/06/06 02:26:30;;;;;;;6.40;5.13;;;11.90;99.90;;;;;;4178501;28;20639;-70
2022/06/06 02:28:30;;;;;;;6.17;4.70;;;11.90;99.90;;;;;;4179097;28;20179;-69
2022/06/06 02:30:34;;;;;;;5.13;4.37;;;11.90;99.90;;;;;;4179292;28;20731;-70
2022/06/06 02:32:35;;;;;;;7.73;6.20;;;11.80;99.90;;;;;;4179049;28;20241;-68
2022/06/06 02:34:35;;;;;;;7.73;5.33;;;11.80;99.90;;;;;;4178833;28;20275;-71
2022/06/06 02:36:36;;;;;;;9.00;5.87;;;11.90;99.90;;;;;;4178322;28;20179;-69
2022/06/06 02:38:36;;;;;;;8.87;6.13;;;11.90;99.90;;;;;;4179006;28;20176;-70
2022/06/06 02:40:37;;;;;;;7.03;5.87;;;12.00;99.90;;;;;;4177489;28;20188;-70
2022/06/06 02:42:38;;;;;;;9.27;6.07;;;11.90;99.90;;;;;;4178928;28;20647;-70
2022/06/06 02:44:38;;;;;;;8.17;6.40;;;11.90;99.90;;;;;;4179057;28;20195;-69
2022/06/06 02:46:39;;;;;;;7.93;5.80;;;11.80;99.90;;;;;;4177941;28;20306;-70
2022/06/06 02:48:40;;;;;;;8.03;5.63;;;11.70;99.90;;;;;;4178930;28;20598;-70
2022/06/06 02:50:42;;;;;;;8.77;5.60;;;11.60;99.90;;;;;;4178726;28;20169;-70
2022/06/06 02:52:43;;;;;;;7.77;6.00;;;11.60;99.90;;;;;;4179104;28;20517;-70
2022/06/06 02:54:44;;;;;;;9.23;5.97;;;11.70;99.90;;;;;;4179053;28;20195;-70
2022/06/06 02:56:44;;;;;;;8.00;5.73;;;11.60;99.90;;;;;;4178661;28;20567;-70
2022/06/06 02:58:45;;;;;;;8.10;6.37;;;11.60;99.90;;;;;;4178975;28;20168;-70
2022/06/06 03:00:46;;;;;;;7.27;5.60;;;11.50;99.90;;;;;;4178911;28;20176;-70
2022/06/06 03:02:46;;;;;;;9.17;6.00;;;11.50;99.90;;;;;;4178849;28;20178;-70
2022/06/06 03:04:47;;;;;;;10.50;6.70;;;11.60;99.90;;;;;;4178854;28;20980;-70
2022/06/06 03:07:17;;;;;;;6.37;5.50;;;11.60;99.90;;;;;;4178430;28;20177;-70
2022/06/06 03:09:32;;;;;;;10.23;6.87;;;11.50;99.90;;;;;;4179142;28;20176;-70
2022/06/06 03:12:02;;;;;;;8.13;6.10;;;11.40;99.90;;;;;;4178835;28;20265;-70
2022/06/06 03:14:42;;;;;;;7.20;6.50;;;11.30;99.90;;;;;;4179166;28;20570;-70
2022/06/06 03:22:20;;;;;;;7.50;5.00;;;11.10;99.90;;;;;;4178549;28;20198;-70
2022/06/06 03:24:31;;;;;;;7.33;5.47;;;11.00;99.90;;;;;;4178797;28;20212;-70
2022/06/06 03:26:52;;;;;;;8.80;4.77;;;11.00;99.90;;;;;;4178065;28;20172;-70
2022/06/06 03:29:00;;;;;;;6.70;5.23;;;11.00;99.90;;;;;;4178355;28;20194;-70
2022/06/06 03:31:32;;;;;;;9.07;5.67;;;10.90;99.90;;;;;;4178229;28;20172;-69
2022/06/06 03:33:48;;;;;;;7.30;5.40;;;10.90;99.90;;;;;;4174542;28;20219;-70
2022/06/06 03:36:18;;;;;;;5.93;5.20;;;10.90;99.90;;;;;;4177747;28;20179;-70
2022/06/06 03:38:40;;;;;;;10.00;7.57;;;10.90;99.90;;;;;;4177274;28;20646;-69
2022/06/06 03:40:58;;;;;;;12.27;7.00;;;11.00;99.90;;;;;;4177139;28;20266;-69
2022/06/06 03:43:04;;;;;;;8.23;6.30;;;11.20;99.90;;;;;;4178174;28;20204;-70
2022/06/06 03:45:08;;;;;;;9.77;7.20;;;11.40;99.90;;;;;;4178120;28;20609;-69
2022/06/06 03:47:35;;;;;;;10.03;7.97;;;11.50;99.90;;;;;;4177930;28;20218;-70
2022/06/06 03:49:57;;;;;;;9.43;6.90;;;11.60;99.90;;;;;;4178167;28;20172;-70
2022/06/06 03:52:19;;;;;;;9.00;6.93;;;11.70;99.90;;;;;;4177534;28;20172;-69
2022/06/06 03:54:53;;;;;;;10.80;6.80;;;11.90;99.90;;;;;;4166966;28;20218;-69
2022/06/06 03:57:16;;;;;;;8.10;6.10;;;12.00;99.90;;;;;;4177617;28;20164;-70
2022/06/06 03:59:19;;;;;;;10.73;6.20;;;12.20;99.90;;;;;;4180391;28;20206;-70
2022/06/06 04:01:22;;;;;;;7.10;6.00;;;12.20;99.90;;;;;;4181237;28;20628;-70
2022/06/06 04:03:24;;;;;;;10.40;5.80;;;12.20;99.90;;;;;;4180908;28;20292;-70
2022/06/06 04:05:25;;;;;;;7.30;5.53;;;12.10;99.90;;;;;;4180238;28;20180;-70
2022/06/06 04:07:25;;;;;;;9.40;6.03;;;12.00;99.90;;;;;;4180914;28;20225;-70
2022/06/06 04:09:29;;;;;;;8.17;6.30;;;12.10;99.90;;;;;;4180811;28;20190;-69
2022/06/06 04:11:29;;;;;;;8.10;6.40;;;12.10;99.90;;;;;;4180912;28;20172;-70
2022/06/06 04:13:48;;;;;;;7.27;5.20;;;12.20;99.90;;;;;;4180802;28;20259;-70
2022/06/06 04:16:12;;;;;;;8.90;6.50;;;12.30;99.90;;;;;;4180128;28;20183;-70
2022/06/06 04:18:32;;;;;;;7.30;5.57;;;12.30;99.90;;;;;;4180884;28;20192;-70
2022/06/06 04:20:52;;;;;;;6.83;5.70;;;12.30;99.90;;;;;;4180615;28;20192;-70
2022/06/06 04:23:22;;;;;;;10.63;5.80;;;12.40;99.90;;;;;;4180640;28;20225;-70
2022/06/06 04:25:41;;;;;;;7.47;6.57;;;12.40;99.90;;;;;;4179938;28;20305;-70
2022/06/06 04:28:03;;;;;;;8.30;6.50;;;12.50;99.90;;;;;;4180723;28;20238;-70
2022/06/06 04:30:05;;;;;;;10.90;6.40;;;12.70;99.90;;;;;;4180699;28;20177;-70
2022/06/06 04:32:25;;;;;;;8.73;6.07;;;12.70;99.90;;;;;;4180531;28;20180;-70
2022/06/06 04:34:54;;;;;;;9.47;6.27;;;12.80;99.90;;;;;;4180665;28;20199;-69
2022/06/06 04:37:21;;;;;;;10.60;6.60;;;12.90;99.90;;;;;;4179836;28;20659;-70
2022/06/06 04:39:29;;;;;;;7.43;6.20;;;13.00;99.90;;;;;;4169194;28;20282;-70
2022/06/06 04:41:36;;;;;;;7.90;5.87;;;13.10;99.90;;;;;;4179208;28;20186;-70
2022/06/06 04:43:59;;;;;;;7.30;6.07;;;13.10;99.90;;;;;;4180191;28;20208;-70
2022/06/06 04:46:14;;;;;;;7.13;5.77;;;13.10;99.90;;;;;;4179794;28;20179;-70
2022/06/06 04:48:16;;;;;;;9.37;5.80;;;13.10;99.90;;;;;;4180298;28;20907;-70
2022/06/06 04:50:19;;;;;;;7.10;5.63;;;13.10;99.90;;;;;;4180240;28;20181;-70
2022/06/06 04:52:22;;;;;;;8.10;6.17;;;13.10;99.90;;;;;;4180104;28;20187;-70
2022/06/06 04:54:25;;;;;;;8.83;5.30;;;13.10;99.90;;;;;;4179979;28;20234;-70
2022/06/06 04:56:26;;;;;;;6.73;5.23;;;13.10;99.90;;;;;;4179752;28;20180;-70
2022/06/06 04:58:31;;;;;;;6.87;5.60;;;13.20;99.90;;;;;;4180082;28;20191;-70
2022/06/06 05:00:37;;;;;;;6.80;4.57;;;13.20;99.90;;;;;;4180336;28;20177;-70
2022/06/06 05:02:37;;;;;;;6.80;5.07;;;13.10;99.90;;;;;;4180152;28;20208;-70
2022/06/06 05:04:38;;;;;;;5.30;4.80;;;13.10;99.90;;;;;;4180043;28;20250;-70
2022/06/06 05:06:51;;;;;;;9.43;4.70;;;13.10;99.90;;;;;;4179590;28;20172;-70
2022/06/06 05:09:19;;;;;;;6.57;5.10;;;13.20;99.90;;;;;;4179540;28;20177;-70
2022/06/06 05:11:35;;;;;;;7.93;4.60;;;13.10;99.90;;;;;;4180022;28;20199;-70
2022/06/06 05:14:13;;;;;;;6.87;5.50;;;13.10;99.90;;;;;;4179901;28;20250;-70
2022/06/06 05:16:41;;;;;;;5.60;4.83;;;13.10;99.90;;;;;;4179385;28;20188;-70
2022/06/06 05:19:22;;;;;;;7.30;4.80;;;13.10;99.90;;;;;;4179863;28;20184;-70
2022/06/06 05:21:54;;;;;;;7.40;5.47;;;13.20;99.90;;;;;;4175635;28;20269;-70
2022/06/06 05:24:11;;;;;;;8.03;5.50;;;13.20;99.90;;;;;;4179696;28;20224;-70
2022/06/06 05:26:27;;;;;;;7.53;4.93;;;13.30;99.90;;;;;;4178992;28;20180;-70
2022/06/06 05:28:49;;;;;;;6.23;5.23;;;13.30;99.90;;;;;;4179750;28;20176;-70
2022/06/06 05:31:11;;;;;;;6.70;5.17;;;13.30;99.90;;;;;;4179589;28;20216;-70
2022/06/06 05:33:20;;;;;;;5.63;4.80;;;13.30;99.90;;;;;;4179557;28;20180;-70
2022/06/06 05:35:54;;;;;;;6.27;4.70;;;13.30;99.90;;;;;;4179323;28;20184;-70
2022/06/06 05:38:04;;;;;;;6.03;4.43;;;13.40;99.90;;;;;;4179567;28;20196;-70
2022/06/06 05:40:13;;;;;;;6.00;4.80;;;13.60;99.90;;;;;;4179486;28;20172;-70
2022/06/06 05:42:17;;;;;;;7.60;4.13;;;13.70;99.90;;;;;;4179583;28;20263;-70
2022/06/06 05:44:53;;;;;;;5.90;3.53;;;13.80;99.90;;;;;;4179124;28;20711;-70
2022/06/06 05:47:02;;;;;;;5.10;3.60;;;13.90;99.90;;;;;;4160029;28;20192;-70
2022/06/06 05:49:29;;;;;;;6.37;4.00;;;14.00;99.90;;;;;;4179575;28;20182;-70
2022/06/06 05:52:01;;;;;;;5.63;3.63;;;14.20;99.90;;;;;;4179434;28;20753;-70
2022/06/06 05:54:35;;;;;;;5.00;3.70;;;14.20;99.90;;;;;;4174848;28;20817;-70
2022/06/06 05:56:57;;;;;;;4.17;3.77;;;14.30;99.90;;;;;;4162202;28;20169;-70
2022/06/06 05:59:07;;;;;;;3.87;3.33;;;14.60;99.90;;;;;;4162831;28;20266;-70
2022/06/06 06:01:40;;;;;;;4.43;3.50;;;14.60;99.90;;;;;;4162663;28;20187;-70
2022/06/06 06:04:06;;;;;;;5.90;4.00;;;14.70;99.90;;;;;;4162577;28;20594;-69
2022/06/06 06:06:06;;;;;;;4.20;3.30;;;14.90;99.90;;;;;;4162333;28;20169;-70
2022/06/06 06:08:28;;;;;;;5.10;3.33;;;15.10;99.90;;;;;;4162516;28;20169;-69
2022/06/06 06:10:47;;;;;;;3.00;2.60;;;15.40;99.90;;;;;;4162459;28;20227;-70
2022/06/06 06:12:57;;;;;;;3.97;2.83;;;15.50;97.10;;;;;;4162347;28;20173;-69
2022/06/06 06:15:06;;;;;;;3.80;2.60;;;15.60;95.30;;;;;;4162164;28;20193;-70
2022/06/06 06:17:09;;;;;;;3.20;2.40;;;15.70;94.30;;;;;;4161550;28;20169;-69
2022/06/06 06:19:17;;;;;;;3.33;2.43;;;15.70;93.50;;;;;;4162289;28;20548;-70
2022/06/06 06:21:24;;;;;;;2.80;2.10;;;15.90;95.20;;;;;;4161623;28;20179;-69
2022/06/06 06:23:29;;;;;;;4.63;2.50;;;16.00;93.80;;;;;;4162121;28;20197;-69
2022/06/06 06:25:34;;;;;;;2.90;2.40;;;16.00;92.90;;;;;;4161792;28;20180;-69
2022/06/06 06:27:36;;;;;;;2.73;2.20;;;16.10;92.70;;;;;;4162430;28;20203;-69
2022/06/06 06:29:36;;;;;;;2.97;2.27;;;16.30;92.80;;;;;;4162272;28;20176;-69
2022/06/06 06:31:43;;;;;;;2.23;2.03;;;16.50;90.80;;;;;;4162349;28;20173;-69
2022/06/06 06:33:57;;;;;;;3.77;2.73;;;16.40;90.80;;;;;;4162063;28;20284;-69
2022/06/06 06:36:31;;;;;;;2.60;2.40;;;16.60;90.50;;;;;;4161584;28;20243;-69
2022/06/06 06:38:47;;;;;;;3.03;2.10;;;16.60;89.40;;;;;;4162261;28;20264;-69
2022/06/06 06:41:02;;;;;;;5.00;2.20;;;16.70;86.20;;;;;;4162197;28;20656;-69
2022/06/06 06:43:05;;;;;;;1.90;1.80;;;16.80;89.50;;;;;;4162064;28;20791;-69
2022/06/06 06:45:18;;;;;;;2.87;2.23;;;17.00;84.40;;;;;;4161820;28;20284;-69
2022/06/06 06:47:28;;;;;;;3.30;2.20;;;17.20;82.90;;;;;;4161757;28;20271;-70
2022/06/06 06:49:41;;;;;;;2.30;2.10;;;17.20;84.40;;;;;;4162408;28;20180;-69
2022/06/06 06:51:46;;;;;;;3.03;2.03;;;17.60;81.60;;;;;;4162294;28;20658;-69
2022/06/06 06:54:08;;;;;;;1.83;1.63;;;17.90;77.60;;;;;;4161979;28;20227;-70
2022/06/06 06:56:34;;;;;;;2.37;2.10;;;17.90;71.60;;;;;;4161528;28;20585;-69
2022/06/06 06:58:51;;;;;;;3.20;2.00;;;18.00;72.50;;;;;;4162180;28;20652;-69
2022/06/06 07:01:00;;;;;;;2.07;1.80;;;18.10;72.50;;;;;;4161815;28;20527;-69
2022/06/06 07:08:34;;;;;;;3.43;2.00;;;18.30;68.90;;;;;;4161823;28;20183;-69
2022/06/06 07:10:49;;;;;;;2.33;1.53;;;18.50;67.30;;;;;;4162023;28;20227;-69
2022/06/06 07:13:06;;;;;;;1.87;1.73;;;18.90;69.60;;;;;;4162161;28;20188;-69
2022/06/06 07:15:11;;;;;;;2.73;1.80;;;19.10;66.60;;;;;;4161678;28;20196;-69
2022/06/06 07:17:12;;;;;;;2.60;1.87;;;19.20;65.80;;;;;;4161460;28;20169;-68
2022/06/06 07:19:17;;;;;;;2.00;1.73;;;19.10;63.80;;;;;;4162017;28;20188;-69
2022/06/06 07:21:19;;;;;;;3.53;2.47;;;18.50;66.70;;;;;;4162011;28;20181;-69
2022/06/06 07:23:22;;;;;;;2.43;1.97;;;18.60;63.60;;;;;;4161605;28;20223;-68
2022/06/06 07:25:23;;;;;;;2.10;1.90;;;18.70;65.90;;;;;;4161245;28;20285;-69
2022/06/06 07:27:25;;;;;;;2.87;2.63;;;18.50;68.60;;;;;;4161739;28;20196;-69
2022/06/06 07:29:25;;;;;;;3.33;2.13;;;18.90;67.50;;;;;;4161726;28;20165;-69
2022/06/06 07:31:52;;;;;;;3.87;1.83;;;18.90;66.00;;;;;;4161813;28;20270;-69
2022/06/06 07:34:17;;;;;;;2.27;2.07;;;19.00;64.60;;;;;;4164828;28;20711;-69
2022/06/06 07:36:44;;;;;;;2.50;1.60;;;18.90;65.90;;;;;;4164461;28;20188;-69
2022/06/06 07:38:56;;;;;;;2.10;2.00;;;19.10;62.80;;;;;;4164383;28;20276;-69
2022/06/06 07:41:33;;;;;;;5.33;2.57;;;18.80;64.00;;;;;;4164771;28;20226;-69
2022/06/06 07:43:54;;;;;;;2.00;1.80;;;18.80;64.80;;;;;;4164687;28;20205;-69
2022/06/06 07:46:08;;;;;;;3.80;3.47;;;18.50;64.10;;;;;;4166652;28;20195;-69
2022/06/06 07:48:34;;;;;;;2.30;1.67;;;18.10;66.80;;;;;;4163446;28;20258;-69
2022/06/06 07:51:08;;;;;;;2.73;1.87;;;18.20;66.30;;;;;;4158786;28;20181;-69
2022/06/06 07:53:35;;;;;;;2.60;2.10;;;18.20;66.30;;;;;;4180794;28;20180;-69
2022/06/06 07:55:41;;;;;;;2.50;2.03;;;18.20;66.30;;;;;;4180506;28;20548;-69
2022/06/06 07:57:51;;;;;;;2.20;2.00;;;18.20;66.30;;;;;;4181186;28;20306;-69
2022/06/06 08:00:03;;;;;;;4.30;2.40;;;17.90;67.40;;;;;;4181288;28;20203;-69
2022/06/06 08:02:35;;;;;;;3.33;2.10;;;17.70;69.60;;;;;;4179871;28;20184;-69
2022/06/06 08:04:41;;;;;;;2.00;1.90;;;17.70;69.50;;;;;;4181204;28;20730;-69
2022/06/06 08:07:20;;;;;;;2.10;1.90;;;17.50;70.60;;;;;;4180968;28;20247;-69
2022/06/06 08:09:52;;;;;;;2.83;2.07;;;17.40;72.80;;;;;;4180962;28;20172;-69
2022/06/06 08:11:59;;;;;;;2.37;1.90;;;17.80;72.60;;;;;;4181163;28;20184;-69
2022/06/06 08:14:14;;;;;;;3.30;1.90;;;17.70;71.10;;;;;;4181123;28;20203;-69
2022/06/06 08:16:24;;;;;;;3.60;2.30;;;18.00;71.30;;;;;;4180957;28;20197;-69
2022/06/06 08:19:02;;;;;;;1.93;1.73;;;18.20;70.40;;;;;;4181146;28;20238;-69
2022/06/06 08:21:35;;;;;;;2.20;1.80;;;18.10;69.60;;;;;;4180512;28;20880;-69
2022/06/06 08:23:37;;;;;;;3.20;1.80;;;18.10;70.30;;;;;;4177472;28;20227;-69
2022/06/06 08:25:38;;;;;;;2.03;1.80;;;18.20;70.40;;;;;;4180074;28;20545;-70
2022/06/06 08:27:44;;;;;;;4.83;2.10;;;18.60;67.60;;;;;;4180759;28;20629;-70
2022/06/06 08:29:46;;;;;;;3.97;2.00;;;18.50;68.20;;;;;;4180764;28;20179;-69
2022/06/06 08:31:46;;;;;;;2.77;2.10;;;18.60;68.50;;;;;;4181019;28;20164;-69
2022/06/06 08:33:48;;;;;;;3.07;2.77;;;18.80;68.10;;;;;;4180571;28;20208;-69
2022/06/06 08:36:07;;;;;;;2.43;2.10;;;19.30;64.00;;;;;;4178525;28;20279;-69
2022/06/06 08:38:24;;;;;;;2.17;1.90;;;19.00;65.50;;;;;;4180673;28;20180;-69
2022/06/06 08:41:02;;;;;;;2.80;2.60;;;19.10;63.40;;;;;;4180368;28;20171;-69
2022/06/06 08:43:28;;;;;;;3.30;3.00;;;18.60;63.30;;;;;;4175261;28;20260;-70
2022/06/06 08:45:42;;;;;;;2.97;2.10;;;18.10;64.30;;;;;;4194932;28;20187;-69
2022/06/06 08:48:02;;;;;;;2.20;2.00;;;18.10;65.80;;;;;;4164674;28;20184;-69
2022/06/06 08:50:44;;;;;;;2.57;2.00;;;18.10;65.30;;;;;;4193387;28;20631;-69
2022/06/06 08:53:28;;;;;;;3.97;1.80;;;18.30;65.30;;;;;;4188959;28;20187;-69
2022/06/06 08:55:38;;;;;;;2.53;1.73;;;18.20;66.10;;;;;;4180734;28;20195;-68
2022/06/06 08:58:22;;;;;;;2.73;2.00;;;18.40;67.10;;;;;;4196278;28;20237;-68
2022/06/06 09:00:54;;;;;;;3.43;2.20;;;18.70;64.50;;;;;;4156445;28;20181;-69
2022/06/06 09:03:22;;;;;;;3.80;1.90;;;19.00;65.20;;;;;;4182236;28;20417;-70
2022/06/06 09:05:26;;;;;;;4.30;2.33;;;19.00;62.80;;;;;;4193273;28;20277;-70
2022/06/06 09:07:45;;;;;;;2.90;2.60;;;19.20;63.70;;;;;;4181239;28;20172;-69
2022/06/06 09:09:57;;;;;;;3.90;2.00;;;19.50;61.00;;;;;;4195204;28;20211;-69
2022/06/06 09:12:29;;;;;;;3.87;1.93;;;19.20;60.50;;;;;;4181200;28;20808;-69
2022/06/06 09:14:40;;;;;;;1.73;1.50;;;19.40;62.60;;;;;;4189074;28;20200;-69
2022/06/06 09:17:51;;;;;;;2.43;1.97;;;20.30;59.70;;;;;;4187177;28;20262;-69
2022/06/06 09:20:29;;;;;;;4.57;2.00;;;20.20;58.20;;;;;;4178675;28;20240;-70
2022/06/06 09:22:49;;;;;;;2.30;2.10;;;20.20;57.30;;;;;;4181365;28;20195;-70
2022/06/06 09:25:26;;;;;;;3.07;2.03;;;19.70;57.60;;;;;;4185983;28;20219;-70
2022/06/06 09:27:30;;;;;;;3.03;2.40;;;19.40;61.70;;;;;;4194085;28;20677;-71
2022/06/06 09:30:07;;;;;;;2.43;1.80;;;19.40;60.50;;;;;;4180705;28;20184;-70
2022/06/06 09:32:33;;;;;;;2.57;1.80;;;19.70;59.70;;;;;;4170735;28;20183;-71
2022/06/06 09:35:05;;;;;;;2.67;1.73;;;19.20;61.00;;;;;;4187889;28;20204;-70
2022/06/06 09:37:15;;;;;;;1.83;1.73;;;19.30;60.90;;;;;;4190788;28;20239;-71
2022/06/06 09:39:55;;;;;;;3.13;1.90;;;19.40;60.90;;;;;;4182190;28;20180;-69
2022/06/06 09:42:15;;;;;;;2.13;1.90;;;19.90;59.40;;;;;;4165283;28;20176;-70
2022/06/06 09:44:54;;;;;;;2.40;2.20;;;19.50;60.70;;;;;;4171649;28;20316;-69
2022/06/06 09:47:41;;;;;;;3.13;2.50;;;19.50;61.50;;;;;;4177734;28;20273;-70
2022/06/06 09:50:03;;;;;;;3.67;1.50;;;19.70;58.90;;;;;;4163370;28;20212;-69
2022/06/06 09:52:35;;;;;;;4.13;3.27;;;20.00;57.80;;;;;;4192011;28;20667;-69
2022/06/06 10:00:30;;;;;;;2.50;1.80;;;19.10;60.00;;;;;;4167207;28;20196;-71
2022/06/06 10:02:58;;;;;;;2.57;2.37;;;19.60;58.70;;;;;;4188063;28;20192;-71
2022/06/06 10:05:10;;;;;;;3.90;2.13;;;19.60;58.20;;;;;;4189528;28;20645;-69
2022/06/06 10:07:16;;;;;;;3.20;2.57;;;19.50;57.80;;;;;;4182289;28;20525;-70
2022/06/06 10:09:36;;;;;;;3.43;2.77;;;19.20;58.50;;;;;;4192110;28;20718;-69
2022/06/06 10:12:02;;;;;;;3.77;1.70;;;19.40;59.40;;;;;;4179143;28;20222;-69
2022/06/06 10:14:14;;;;;;;2.17;2.07;;;20.50;57.10;;;;;;4167397;28;20198;-70
2022/06/06 10:16:56;;;;;;;2.27;1.90;;;21.30;53.00;;;;;;4189546;28;20215;-70
2022/06/06 10:19:25;;;;;;;2.20;2.00;;;21.90;51.70;;;;;;4188170;28;21126;-71
2022/06/06 10:22:15;;;;;;;4.13;1.70;;;21.60;49.90;;;;;;4180104;28;20200;-71
2022/06/06 10:24:49;;;;;;;2.83;1.57;;;21.20;51.50;;;;;;4172067;28;20280;-71
2022/06/06 10:27:00;;;;;;;2.47;1.80;;;20.80;52.90;;;;;;4184709;28;20210;-71
2022/06/06 10:29:16;;;;;;;5.93;1.97;;;20.60;53.40;;;;;;4178478;28;20237;-71
2022/06/06 10:31:32;;;;;;;2.07;1.87;;;21.20;52.50;;;;;;4176218;28;20184;-71
2022/06/06 10:33:52;;;;;;;1.77;1.60;;;21.20;52.40;;;;;;4183025;28;20662;-71
2022/06/06 10:36:34;;;;;;;2.00;1.80;;;21.30;51.90;;;;;;4161268;28;20184;-70
2022/06/06 10:38:59;;;;;;;1.93;1.73;;;21.10;50.60;;;;;;4176938;28;20183;-70
2022/06/06 10:41:08;;;;;;;4.27;2.20;;;21.20;50.80;;;;;;4183791;28;20208;-71
2022/06/06 10:43:39;;;;;;;2.73;1.70;;;21.50;50.70;;;;;;4183110;28;20211;-70
2022/06/06 10:45:46;;;;;;;2.63;2.07;;;21.70;49.20;;;;;;4161112;28;20491;-70
2022/06/06 10:48:05;;;;;;;2.07;1.90;;;21.70;49.60;;;;;;4193665;28;20179;-69
2022/06/06 10:53:41;;;;;;;2.17;1.80;;;22.20;48.90;;;;;;4177437;28;20273;-69
2022/06/06 10:56:12;;;;;;;1.60;1.50;;;22.30;48.40;;;;;;4165439;28;20193;-69
2022/06/06 10:58:13;;;;;;;3.27;2.47;;;21.90;48.50;;;;;;4182646;28;20248;-69
2022/06/06 11:00:38;;;;;;;1.73;1.60;;;22.00;48.30;;;;;;4183923;28;20841;-69
2022/06/06 11:03:03;;;;;;;2.00;1.90;;;22.30;48.10;;;;;;4172674;28;20192;-72
2022/06/06 11:05:24;;;;;;;3.00;1.70;;;22.00;47.70;;;;;;4177698;28;20207;-70
2022/06/06 11:07:38;;;;;;;2.23;2.00;;;21.90;48.30;;;;;;4182130;28;20202;-71
2022/06/06 11:10:12;;;;;;;3.10;1.60;;;22.50;47.10;;;;;;4176916;28;20273;-72
2022/06/06 11:12:40;;;;;;;2.93;2.00;;;21.90;46.30;;;;;;4181130;28;20760;-71
2022/06/06 11:14:46;;;;;;;3.67;2.10;;;21.50;49.10;;;;;;4189622;28;20191;-71
2022/06/06 11:17:16;;;;;;;2.27;1.83;;;21.20;48.90;;;;;;4188070;28;20180;-73
2022/06/06 11:19:47;;;;;;;2.13;1.80;;;21.00;48.50;;;;;;4194648;28;20182;-70
2022/06/06 11:22:09;;;;;;;3.43;2.30;;;20.90;47.80;;;;;;4167174;28;20228;-72
2022/06/06 11:24:28;;;;;;;2.73;1.97;;;21.30;48.60;;;;;;4193599;28;20701;-72
2022/06/06 11:26:59;;;;;;;2.13;1.93;;;22.10;47.20;;;;;;4187311;28;20207;-73
2022/06/06 11:29:17;;;;;;;1.80;1.70;;;23.40;44.80;;;;;;4186512;28;20237;-70
2022/06/06 11:32:06;;;;;;;2.33;1.90;;;23.90;43.00;;;;;;4180998;28;20196;-71
2022/06/06 11:34:30;;;;;;;3.17;2.63;;;23.90;42.30;;;;;;4165553;28;20809;-71
2022/06/06 11:36:58;;;;;;;2.10;1.73;;;24.40;41.90;;;;;;4189693;28;20188;-72
2022/06/06 11:39:07;;;;;;;2.27;1.93;;;24.80;40.50;;;;;;4180897;28;20270;-71
2022/06/06 11:41:23;;;;;;;2.03;1.83;;;23.00;44.60;;;;;;4180936;28;20206;-71
2022/06/06 11:44:01;;;;;;;1.90;1.80;;;24.20;41.20;;;;;;4180624;28;20204;-72
2022/06/06 11:46:23;;;;;;;2.30;1.67;;;24.40;40.50;;;;;;4171945;28;20179;-70
2022/06/06 11:48:54;;;;;;;2.73;2.53;;;25.30;41.00;;;;;;4190996;28;20179;-70
2022/06/06 11:51:36;;;;;;;1.97;1.80;;;24.90;39.20;;;;;;4191115;28;20182;-70
2022/06/06 11:53:55;;;;;;;2.40;1.60;;;25.00;40.20;;;;;;4181076;28;20211;-69
2022/06/06 11:56:09;;;;;;;1.50;1.40;;;26.00;37.00;;;;;;4168195;28;20184;-67
2022/06/06 11:58:37;;;;;;;2.50;2.30;;;26.00;37.30;;;;;;4192849;28;20192;-69
2022/06/06 12:01:06;;;;;;;3.27;3.07;;;26.70;37.70;;;;;;4188245;28;20184;-68
2022/06/06 12:03:25;;;;;;;1.90;1.80;;;27.80;36.00;;;;;;4183961;28;20180;-68
2022/06/06 12:05:48;;;;;;;4.60;4.13;;;28.00;34.80;;;;;;4194597;28;20593;-68